createdAt,value
2022-11-07T00:00:10.693Z,58.67
2022-11-07T00:02:38.166Z,58.74
2022-11-07T00:05:08.073Z,58.77
2022-11-07T00:07:35.515Z,58.74
2022-11-07T00:10:02.957Z,58.81
2022-11-07T00:12:30.385Z,58.69
2022-11-07T00:14:57.822Z,58.75
2022-11-07T00:17:25.244Z,58.81
2022-11-07T00:19:52.680Z,58.81
2022-11-07T00:22:21.437Z,58.80
2022-11-07T00:24:48.871Z,58.91
2022-11-07T00:27:16.368Z,58.81
2022-11-07T00:29:43.905Z,58.95
2022-11-07T00:32:11.369Z,58.85
2022-11-07T00:34:38.838Z,58.93
2022-11-07T00:37:06.262Z,58.82
2022-11-07T00:39:35.580Z,58.80
2022-11-07T00:42:03.503Z,58.71
2022-11-07T00:44:30.943Z,58.74
2022-11-07T00:46:58.382Z,58.91
2022-11-07T00:49:25.850Z,59.00
2022-11-07T00:51:53.265Z,58.85
2022-11-07T00:54:20.724Z,58.84
2022-11-07T00:56:49.475Z,58.86
2022-11-07T00:59:17.009Z,58.76
2022-11-07T01:01:44.504Z,58.85
2022-11-07T01:04:39.543Z,58.84
2022-11-07T01:07:07.309Z,58.82
2022-11-07T01:09:34.755Z,58.87
2022-11-07T01:12:03.570Z,58.92
2022-11-07T01:14:31.050Z,58.99
2022-11-07T01:16:58.530Z,58.71
2022-11-07T01:19:26.016Z,58.88
2022-11-07T01:21:53.448Z,58.92
2022-11-07T01:24:20.883Z,58.93
2022-11-07T01:26:48.714Z,58.75
2022-11-07T01:29:17.897Z,58.56
2022-11-07T01:31:45.325Z,58.83
2022-11-07T01:34:12.761Z,58.57
2022-11-07T01:36:40.234Z,58.88
2022-11-07T01:39:07.679Z,58.97
2022-11-07T01:41:36.270Z,58.60
2022-11-07T01:44:04.692Z,58.74
2022-11-07T01:46:34.377Z,58.78
2022-11-07T01:49:05.308Z,58.88
2022-11-07T01:51:34.232Z,58.80
2022-11-07T01:54:01.785Z,59.02
2022-11-07T01:56:29.600Z,59.03
2022-11-07T01:58:57.060Z,59.04
2022-11-07T02:01:24.691Z,59.07
2022-11-07T02:03:53.533Z,59.13
2022-11-07T02:06:23.422Z,59.05
2022-11-07T02:08:51.000Z,59.15
2022-11-07T02:11:18.894Z,59.13
2022-11-07T02:13:46.772Z,59.05
2022-11-07T02:16:14.206Z,59.14
2022-11-07T02:18:42.086Z,58.87
2022-11-07T02:21:14.401Z,59.20
2022-11-07T02:23:45.048Z,59.05
2022-11-07T02:26:13.845Z,59.09
2022-11-07T02:28:41.331Z,59.16
2022-11-07T02:31:08.796Z,59.10
2022-11-07T02:33:36.284Z,59.16
2022-11-07T02:36:04.672Z,59.24
2022-11-07T02:38:33.716Z,58.82
2022-11-07T02:41:02.843Z,59.13
2022-11-07T02:43:32.324Z,59.21
2022-11-07T02:46:01.463Z,59.19
2022-11-07T02:48:30.027Z,59.17
2022-11-07T02:50:57.539Z,59.28
2022-11-07T02:53:24.985Z,59.22
2022-11-07T02:55:52.439Z,59.34
2022-11-07T02:58:19.960Z,59.28
2022-11-07T03:00:48.821Z,59.20
2022-11-07T03:03:17.185Z,59.14
2022-11-07T03:05:45.058Z,59.39
2022-11-07T03:08:12.494Z,59.43
2022-11-07T03:10:39.976Z,59.41
2022-11-07T03:13:07.408Z,59.51
2022-11-07T03:15:34.886Z,59.39
2022-11-07T03:18:03.728Z,59.42
2022-11-07T03:20:31.285Z,59.48
2022-11-07T03:22:58.778Z,59.35
2022-11-07T03:25:26.247Z,59.46
2022-11-07T03:27:53.693Z,59.48
2022-11-07T03:30:21.371Z,59.35
2022-11-07T03:32:48.931Z,59.12
2022-11-07T03:35:17.882Z,59.32
2022-11-07T03:37:46.153Z,59.38
2022-11-07T03:40:13.804Z,59.39
2022-11-07T03:42:41.293Z,59.27
2022-11-07T03:45:09.904Z,59.39
2022-11-07T03:47:37.406Z,59.26
2022-11-07T03:50:05.296Z,59.31
2022-11-07T03:52:34.058Z,59.46
2022-11-07T03:55:01.605Z,59.41
2022-11-07T03:57:29.050Z,59.47
2022-11-07T03:59:56.533Z,59.47
2022-11-07T04:02:24.078Z,59.47
2022-11-07T04:04:51.677Z,59.45
2022-11-07T04:07:19.132Z,59.50
2022-11-07T04:09:47.895Z,59.54
2022-11-07T04:12:33.123Z,59.60
2022-11-07T04:15:18.321Z,59.55
2022-11-07T04:17:45.799Z,59.56
2022-11-07T04:20:13.259Z,59.62
2022-11-07T04:22:40.708Z,59.74
2022-11-07T04:25:10.737Z,59.56
2022-11-07T04:27:43.201Z,59.69
2022-11-07T04:30:29.526Z,59.40
2022-11-07T04:32:58.085Z,59.49
2022-11-07T04:35:26.737Z,59.49
2022-11-07T04:37:54.161Z,59.59
2022-11-07T04:40:22.981Z,59.51
2022-11-07T04:42:50.554Z,59.58
2022-11-07T04:45:18.391Z,59.57
2022-11-07T04:47:45.867Z,59.67
2022-11-07T04:50:14.203Z,59.72
2022-11-07T04:52:41.737Z,59.62
2022-11-07T04:55:10.204Z,59.73
2022-11-07T04:57:38.992Z,59.74
2022-11-07T05:00:07.917Z,59.74
2022-11-07T05:02:35.419Z,59.63
2022-11-07T05:05:02.949Z,59.75
2022-11-07T05:07:30.396Z,59.59
2022-11-07T05:10:00.645Z,59.69
2022-11-07T05:12:28.170Z,59.78
2022-11-07T05:14:56.964Z,59.81
2022-11-07T05:17:27.839Z,59.81
2022-11-07T05:19:55.688Z,59.84
2022-11-07T05:22:40.640Z,59.80
2022-11-07T05:25:09.441Z,59.81
2022-11-07T05:27:36.870Z,59.83
2022-11-07T05:30:06.480Z,59.84
2022-11-07T05:32:37.886Z,59.72
2022-11-07T05:35:05.858Z,59.82
2022-11-07T05:37:33.463Z,59.90
2022-11-07T05:40:01.004Z,59.92
2022-11-07T05:42:28.447Z,59.91
2022-11-07T05:44:55.932Z,59.90
2022-11-07T05:47:24.718Z,59.96
2022-11-07T05:49:52.192Z,59.98
2022-11-07T05:52:19.643Z,59.89
2022-11-07T05:54:47.096Z,59.93
2022-11-07T05:57:14.551Z,59.71
2022-11-07T05:59:42.007Z,59.84
2022-11-07T06:02:09.610Z,59.74
2022-11-07T06:04:38.868Z,59.60
2022-11-07T06:07:06.421Z,59.87
2022-11-07T06:09:33.936Z,59.82
2022-11-07T06:12:03.692Z,59.79
2022-11-07T06:14:31.226Z,59.71
2022-11-07T06:16:58.692Z,59.75
2022-11-07T06:19:26.162Z,59.82
2022-11-07T06:21:54.936Z,59.79
2022-11-07T06:24:22.369Z,59.85
2022-11-07T06:26:49.801Z,59.79
2022-11-07T06:29:17.510Z,59.86
2022-11-07T06:31:44.955Z,59.99
2022-11-07T06:34:12.415Z,59.99
2022-11-07T06:36:39.883Z,59.91
2022-11-07T06:39:08.684Z,60.01
2022-11-07T06:41:36.157Z,60.10
2022-11-07T06:44:03.904Z,60.07
2022-11-07T06:46:31.383Z,59.97
2022-11-07T06:48:58.835Z,60.14
2022-11-07T06:51:26.287Z,60.18
2022-11-07T06:53:54.189Z,60.09
2022-11-07T06:56:23.002Z,60.23
2022-11-07T06:58:50.591Z,60.09
2022-11-07T07:01:18.430Z,60.10
2022-11-07T07:03:46.292Z,60.09
2022-11-07T07:06:14.809Z,60.13
2022-11-07T07:08:42.275Z,60.17
2022-11-07T07:11:10.612Z,60.01
2022-11-07T07:13:39.505Z,60.18
2022-11-07T07:16:07.468Z,59.93
2022-11-07T07:18:35.019Z,60.00
2022-11-07T07:21:07.124Z,60.13
2022-11-07T07:23:34.737Z,60.33
2022-11-07T07:26:02.612Z,60.67
2022-11-07T07:28:30.101Z,60.62
2022-11-07T07:31:09.044Z,60.69
2022-11-07T07:33:36.668Z,60.76
2022-11-07T07:36:04.216Z,60.63
2022-11-07T07:38:31.876Z,60.74
2022-11-07T07:40:59.745Z,60.61
2022-11-07T07:43:27.350Z,60.71
2022-11-07T07:45:54.842Z,60.49
2022-11-07T07:48:23.629Z,60.67
2022-11-07T07:50:51.086Z,60.48
2022-11-07T07:53:18.960Z,60.73
2022-11-07T07:55:46.598Z,60.75
2022-11-07T07:58:14.159Z,60.97
2022-11-07T08:00:41.744Z,60.70
2022-11-07T08:03:10.058Z,60.67
2022-11-07T08:05:38.997Z,60.38
2022-11-07T08:08:07.045Z,60.76
2022-11-07T08:10:43.055Z,60.57
2022-11-07T08:13:10.873Z,60.89
2022-11-07T08:15:38.372Z,60.91
2022-11-07T08:18:06.003Z,60.70
2022-11-07T08:20:33.462Z,61.16
2022-11-07T08:23:03.102Z,60.94
2022-11-07T08:25:30.610Z,61.07
2022-11-07T08:27:58.051Z,60.97
2022-11-07T08:30:26.779Z,61.05
2022-11-07T08:32:54.229Z,60.97
2022-11-07T08:35:21.705Z,60.97
2022-11-07T08:37:49.417Z,60.86
2022-11-07T08:40:18.392Z,61.06
2022-11-07T08:42:45.832Z,60.93
2022-11-07T08:45:13.318Z,60.60
2022-11-07T08:47:40.775Z,61.06
2022-11-07T08:50:08.816Z,61.09
2022-11-07T08:52:36.454Z,61.10
2022-11-07T08:55:04.047Z,60.93
2022-11-07T08:57:32.828Z,60.82
2022-11-07T09:00:00.321Z,60.62
2022-11-07T09:03:08.389Z,60.49
2022-11-07T09:05:15.491Z,60.54
2022-11-07T09:07:42.944Z,60.31
2022-11-07T09:10:11.628Z,60.06
2022-11-07T09:12:46.152Z,60.53
2022-11-07T09:15:13.624Z,60.49
2022-11-07T09:17:41.166Z,60.56
2022-11-07T09:20:09.680Z,60.64
2022-11-07T09:22:37.145Z,60.67
2022-11-07T09:25:04.858Z,60.67
2022-11-07T09:27:32.339Z,60.79
2022-11-07T09:30:01.114Z,60.43
2022-11-07T09:32:44.641Z,60.45
2022-11-07T09:35:13.055Z,60.35
2022-11-07T09:37:40.669Z,60.65
2022-11-07T09:40:11.890Z,60.66
2022-11-07T09:42:43.128Z,60.75
2022-11-07T09:45:13.070Z,60.75
2022-11-07T09:47:42.150Z,60.91
2022-11-07T09:50:13.376Z,61.04
2022-11-07T09:52:42.996Z,61.13
2022-11-07T09:55:15.759Z,61.11
2022-11-07T09:57:43.188Z,60.93
2022-11-07T10:00:16.447Z,60.83
2022-11-07T10:02:45.111Z,60.83
2022-11-07T10:05:14.815Z,60.91
2022-11-07T10:07:46.636Z,61.27
2022-11-07T10:10:16.737Z,61.11
2022-11-07T10:12:50.431Z,61.34
2022-11-07T10:15:21.602Z,61.25
2022-11-07T10:17:54.109Z,61.45
2022-11-07T10:20:27.611Z,61.24
2022-11-07T10:23:01.262Z,61.03
2022-11-07T10:25:30.218Z,61.12
2022-11-07T10:28:09.111Z,61.31
2022-11-07T10:30:37.892Z,61.14
2022-11-07T10:33:07.045Z,61.38
2022-11-07T10:35:35.316Z,61.51
2022-11-07T10:38:04.627Z,61.64
2022-11-07T10:40:34.452Z,61.81
2022-11-07T10:43:02.205Z,61.87
2022-11-07T10:45:29.715Z,61.70
2022-11-07T10:47:59.364Z,61.47
2022-11-07T10:50:26.910Z,61.37
2022-11-07T10:52:55.307Z,61.44
2022-11-07T10:55:23.007Z,61.08
2022-11-07T10:57:52.978Z,60.86
2022-11-07T11:00:25.605Z,61.63
2022-11-07T11:02:53.398Z,60.95
2022-11-07T11:05:27.351Z,61.57
2022-11-07T11:07:56.073Z,62.05
2022-11-07T11:10:24.594Z,61.86
2022-11-07T11:12:52.042Z,61.40
2022-11-07T11:15:20.468Z,61.01
2022-11-07T11:17:48.004Z,60.86
2022-11-07T11:20:31.900Z,60.81
2022-11-07T11:23:00.110Z,60.82
2022-11-07T11:25:27.540Z,59.99
2022-11-07T11:27:57.239Z,60.10
2022-11-07T11:30:24.687Z,60.61
2022-11-07T11:32:53.424Z,60.36
2022-11-07T11:35:31.541Z,60.76
2022-11-07T11:38:01.494Z,60.81
2022-11-07T11:40:28.957Z,60.87
2022-11-07T11:42:59.608Z,61.00
2022-11-07T11:45:31.974Z,61.21
2022-11-07T11:48:01.252Z,61.14
2022-11-07T11:50:37.849Z,61.25
2022-11-07T11:53:05.420Z,61.55
2022-11-07T11:55:37.224Z,61.39
2022-11-07T11:58:11.053Z,61.41
2022-11-07T12:00:40.008Z,61.65
2022-11-07T12:03:28.276Z,61.58
2022-11-07T12:06:17.741Z,61.61
2022-11-07T12:09:18.292Z,61.76
2022-11-07T12:11:52.439Z,61.75
2022-11-07T12:14:42.964Z,61.96
2022-11-07T12:17:11.481Z,61.30
2022-11-07T12:19:43.502Z,60.90
2022-11-07T12:22:15.233Z,60.91
2022-11-07T12:24:45.113Z,61.20
2022-11-07T12:27:20.357Z,61.30
2022-11-07T12:30:02.797Z,61.33
2022-11-07T12:32:38.113Z,61.34
2022-11-07T12:35:17.190Z,61.09
2022-11-07T12:37:53.397Z,61.33
2022-11-07T12:40:28.833Z,61.20
2022-11-07T12:43:03.168Z,61.05
2022-11-07T12:45:40.654Z,61.13
2022-11-07T12:48:20.203Z,60.91
2022-11-07T12:50:48.769Z,61.14
2022-11-07T12:53:24.864Z,60.96
2022-11-07T12:55:53.369Z,61.23
2022-11-07T12:58:22.943Z,61.28
2022-11-07T13:00:50.615Z,61.34
2022-11-07T13:03:28.536Z,61.47
2022-11-07T13:06:03.555Z,61.74
2022-11-07T13:08:35.201Z,61.49
2022-11-07T13:11:04.629Z,61.11
2022-11-07T13:13:36.636Z,61.39
2022-11-07T13:16:16.239Z,61.39
2022-11-07T13:18:43.810Z,61.43
2022-11-07T13:21:11.305Z,61.71
2022-11-07T13:23:40.305Z,62.07
2022-11-07T13:26:32.546Z,61.63
2022-11-07T13:28:59.024Z,61.62
2022-11-07T13:31:36.481Z,61.78
2022-11-07T13:34:11.702Z,61.76
2022-11-07T13:36:39.188Z,61.81
2022-11-07T13:39:07.957Z,61.63
2022-11-07T13:41:35.409Z,61.67
2022-11-07T13:44:03.798Z,61.67
2022-11-07T13:46:32.289Z,61.68
2022-11-07T13:49:01.589Z,61.83
2022-11-07T13:51:32.109Z,61.48
2022-11-07T13:54:05.120Z,61.68
2022-11-07T13:56:37.575Z,61.73
2022-11-07T13:59:05.170Z,61.57
2022-11-07T14:01:41.264Z,61.68
2022-11-07T14:04:16.124Z,61.80
2022-11-07T14:06:43.637Z,61.50
2022-11-07T14:09:14.544Z,61.66
2022-11-07T14:11:43.323Z,61.73
2022-11-07T14:14:10.840Z,61.78
2022-11-07T14:16:38.279Z,62.21
2022-11-07T14:19:07.096Z,62.75
2022-11-07T14:21:35.614Z,63.01
2022-11-07T14:24:03.071Z,62.84
2022-11-07T14:26:32.659Z,63.17
2022-11-07T14:29:01.673Z,63.31
2022-11-07T14:31:30.229Z,63.77
2022-11-07T14:33:58.517Z,64.28
2022-11-07T14:36:26.084Z,64.69
2022-11-07T14:38:54.721Z,65.23
2022-11-07T14:41:22.281Z,65.44
2022-11-07T14:43:49.937Z,65.48
2022-11-07T14:46:21.032Z,65.46
2022-11-07T14:48:49.542Z,65.59
2022-11-07T14:51:17.885Z,65.79
2022-11-07T14:53:50.796Z,65.62
2022-11-07T14:56:18.430Z,65.70
2022-11-07T14:58:45.850Z,65.95
2022-11-07T15:01:14.711Z,65.88
2022-11-07T15:03:53.206Z,65.64
2022-11-07T15:06:22.540Z,65.76
2022-11-07T15:08:56.644Z,65.78
2022-11-07T15:11:26.735Z,65.94
2022-11-07T15:13:54.040Z,65.93
2022-11-07T15:16:22.736Z,66.00
2022-11-07T15:18:58.558Z,66.06
2022-11-07T15:21:28.249Z,65.77
2022-11-07T15:23:55.751Z,65.95
2022-11-07T15:26:24.051Z,66.16
2022-11-07T15:28:52.017Z,66.11
2022-11-07T15:31:21.031Z,66.13
2022-11-07T15:33:48.527Z,65.98
2022-11-07T15:36:17.373Z,66.15
2022-11-07T15:38:44.856Z,66.03
2022-11-07T15:41:12.556Z,66.17
2022-11-07T15:43:40.022Z,66.17
2022-11-07T15:46:13.239Z,66.11
2022-11-07T15:48:41.465Z,65.99
2022-11-07T15:51:09.492Z,66.02
2022-11-07T15:53:38.272Z,66.12
2022-11-07T15:56:05.905Z,66.31
2022-11-07T15:58:33.365Z,66.32
2022-11-07T16:01:01.038Z,66.27
2022-11-07T16:03:28.628Z,66.32
2022-11-07T16:05:58.433Z,66.42
2022-11-07T16:08:25.875Z,66.32
2022-11-07T16:10:55.836Z,66.52
2022-11-07T16:13:23.284Z,66.54
2022-11-07T16:15:52.000Z,66.50
2022-11-07T16:18:21.141Z,66.44
2022-11-07T16:20:48.983Z,66.44
2022-11-07T16:23:18.038Z,66.65
2022-11-07T16:25:46.350Z,66.46
2022-11-07T16:28:24.200Z,66.53
2022-11-07T16:30:51.779Z,66.68
2022-11-07T16:33:19.221Z,66.75
2022-11-07T16:35:48.688Z,66.50
2022-11-07T16:38:17.246Z,66.59
2022-11-07T16:40:45.041Z,66.73
2022-11-07T16:43:12.496Z,66.51
2022-11-07T16:45:46.480Z,66.43
2022-11-07T16:48:19.182Z,66.54
2022-11-07T16:50:46.731Z,66.65
2022-11-07T16:53:14.288Z,66.52
2022-11-07T16:55:41.836Z,66.74
2022-11-07T16:58:10.769Z,66.49
2022-11-07T17:00:38.206Z,66.52
2022-11-07T17:03:07.055Z,66.58
2022-11-07T17:05:34.552Z,66.68
2022-11-07T17:08:03.582Z,66.70
2022-11-07T17:10:31.026Z,66.54
2022-11-07T17:12:58.482Z,66.41
2022-11-07T17:15:25.932Z,66.64
2022-11-07T17:17:58.976Z,66.67
2022-11-07T17:20:49.994Z,66.63
2022-11-07T17:23:16.808Z,66.71
2022-11-07T17:25:47.407Z,66.67
2022-11-07T17:28:15.211Z,66.61
2022-11-07T17:30:42.788Z,66.60
2022-11-07T17:33:10.251Z,66.72
2022-11-07T17:35:38.990Z,66.60
2022-11-07T17:38:06.665Z,66.54
2022-11-07T17:40:34.612Z,66.46
2022-11-07T17:43:02.145Z,66.67
2022-11-07T17:45:29.651Z,66.46
2022-11-07T17:47:57.103Z,66.44
2022-11-07T17:50:24.611Z,66.54
2022-11-07T17:52:53.532Z,66.59
2022-11-07T17:55:21.509Z,66.62
2022-11-07T17:57:48.980Z,66.24
2022-11-07T18:00:17.667Z,66.58
2022-11-07T18:02:45.769Z,66.51
2022-11-07T18:05:16.606Z,66.49
2022-11-07T18:07:44.286Z,66.32
2022-11-07T18:10:13.603Z,66.49
2022-11-07T18:12:41.059Z,66.35
2022-11-07T18:15:11.786Z,66.53
2022-11-07T18:17:39.813Z,66.58
2022-11-07T18:20:09.149Z,66.51
2022-11-07T18:22:37.449Z,66.35
2022-11-07T18:25:06.196Z,66.53
2022-11-07T18:27:34.977Z,66.30
2022-11-07T18:30:02.918Z,66.25
2022-11-07T18:32:35.729Z,66.50
2022-11-07T18:35:04.698Z,66.42
2022-11-07T18:37:32.159Z,66.44
2022-11-07T18:39:59.614Z,66.40
2022-11-07T18:42:27.056Z,66.41
2022-11-07T18:44:55.800Z,66.42
2022-11-07T18:47:23.238Z,66.33
2022-11-07T18:49:56.600Z,66.43
2022-11-07T18:52:24.692Z,66.50
2022-11-07T18:54:52.245Z,66.25
2022-11-07T18:57:19.717Z,66.41
2022-11-07T18:59:47.341Z,66.33
2022-11-07T19:02:17.151Z,66.11
2022-11-07T19:04:44.821Z,66.18
2022-11-07T19:07:12.324Z,66.01
2022-11-07T19:09:39.802Z,66.15
2022-11-07T19:12:07.884Z,66.28
2022-11-07T19:14:35.556Z,66.31
2022-11-07T19:17:03.004Z,65.93
2022-11-07T19:19:32.060Z,66.21
2022-11-07T19:21:59.512Z,66.23
2022-11-07T19:24:26.955Z,66.37
2022-11-07T19:26:54.425Z,66.31
2022-11-07T19:29:21.887Z,66.26
2022-11-07T19:31:49.394Z,66.24
2022-11-07T19:34:17.950Z,66.39
2022-11-07T19:36:46.707Z,66.38
2022-11-07T19:39:14.153Z,66.19
2022-11-07T19:41:41.601Z,66.24
2022-11-07T19:44:09.211Z,66.32
2022-11-07T19:46:36.650Z,66.26
2022-11-07T19:49:04.095Z,66.29
2022-11-07T19:51:31.541Z,66.39
2022-11-07T19:54:00.778Z,66.31
2022-11-07T19:56:28.964Z,66.39
2022-11-07T19:58:56.426Z,66.42
2022-11-07T20:01:24.984Z,66.32
2022-11-07T20:03:52.830Z,66.30
2022-11-07T20:06:21.591Z,66.12
2022-11-07T20:08:49.077Z,66.11
2022-11-07T20:11:18.883Z,66.41
2022-11-07T20:13:46.339Z,66.21
2022-11-07T20:16:13.876Z,66.36
2022-11-07T20:18:41.504Z,66.31
2022-11-07T20:21:12.130Z,66.32
2022-11-07T20:23:39.683Z,66.27
2022-11-07T20:26:07.539Z,66.24
2022-11-07T20:28:36.330Z,66.42
2022-11-07T20:31:07.536Z,66.35
2022-11-07T20:33:34.999Z,66.17
2022-11-07T20:36:03.189Z,66.19
2022-11-07T20:38:30.687Z,66.27
2022-11-07T20:40:58.200Z,66.22
2022-11-07T20:43:25.828Z,66.26
2022-11-07T20:45:54.683Z,66.37
2022-11-07T20:48:22.523Z,66.34
2022-11-07T20:50:49.974Z,66.33
2022-11-07T20:53:17.916Z,66.18
2022-11-07T20:55:45.562Z,66.35
2022-11-07T20:58:13.060Z,66.24
2022-11-07T21:00:41.135Z,66.10
2022-11-07T21:03:13.143Z,66.24
2022-11-07T21:05:40.565Z,66.13
2022-11-07T21:08:08.012Z,66.11
2022-11-07T21:10:35.470Z,66.16
2022-11-07T21:13:02.995Z,66.33
2022-11-07T21:15:30.431Z,66.15
2022-11-07T21:17:57.870Z,66.27
2022-11-07T21:20:26.612Z,66.25
2022-11-07T21:22:54.084Z,66.13
2022-11-07T21:25:21.744Z,66.20
2022-11-07T21:27:49.207Z,66.18
2022-11-07T21:30:17.106Z,66.25
2022-11-07T21:32:44.581Z,66.07
2022-11-07T21:35:13.211Z,66.08
2022-11-07T21:37:42.093Z,66.14
2022-11-07T21:40:10.734Z,66.13
2022-11-07T21:42:38.654Z,66.23
2022-11-07T21:45:06.749Z,66.09
2022-11-07T21:47:34.353Z,66.20
2022-11-07T21:50:09.454Z,66.16
2022-11-07T21:52:46.790Z,66.18
2022-11-07T21:55:14.408Z,66.11
2022-11-07T21:57:42.389Z,66.17
2022-11-07T22:00:11.612Z,66.07
2022-11-07T22:02:39.281Z,66.02
2022-11-07T22:05:07.878Z,66.20
2022-11-07T22:07:35.772Z,66.13
2022-11-07T22:10:05.169Z,66.12
2022-11-07T22:12:32.712Z,65.95
2022-11-07T22:15:00.386Z,66.06
2022-11-07T22:17:28.043Z,66.05
2022-11-07T22:19:55.538Z,65.94
2022-11-07T22:22:22.967Z,65.96
2022-11-07T22:24:50.442Z,65.89
2022-11-07T22:27:19.234Z,65.91
2022-11-07T22:29:46.870Z,66.10
2022-11-07T22:32:14.366Z,66.00
2022-11-07T22:34:41.887Z,66.07
2022-11-07T22:37:09.336Z,66.11
2022-11-07T22:39:36.790Z,66.13
2022-11-07T22:42:04.425Z,66.07
2022-11-07T22:44:33.229Z,66.04
2022-11-07T22:47:00.708Z,66.05
2022-11-07T22:49:28.160Z,65.95
2022-11-07T22:51:55.623Z,66.07
2022-11-07T22:54:23.117Z,65.83
2022-11-07T22:56:50.541Z,66.01
2022-11-07T22:59:18.003Z,65.97
2022-11-07T23:01:46.820Z,65.92
2022-11-07T23:04:15.094Z,65.88
2022-11-07T23:06:42.606Z,66.09
2022-11-07T23:09:12.256Z,65.98
2022-11-07T23:11:45.862Z,66.03
2022-11-07T23:14:14.578Z,65.98
2022-11-07T23:16:44.034Z,66.10
2022-11-07T23:19:13.755Z,65.80
2022-11-07T23:21:41.259Z,65.97
2022-11-07T23:24:08.947Z,65.76
2022-11-07T23:26:36.436Z,66.02
2022-11-07T23:29:10.094Z,65.95
2022-11-07T23:31:38.288Z,65.86
2022-11-07T23:36:29.941Z,65.97
2022-11-07T23:38:57.753Z,65.94
2022-11-07T23:41:25.255Z,65.75
2022-11-07T23:43:52.977Z,65.77
2022-11-07T23:46:38.333Z,65.79
2022-11-07T23:49:23.610Z,65.98
2022-11-07T23:51:52.416Z,65.92
2022-11-07T23:54:37.732Z,65.81
2022-11-07T23:57:05.297Z,65.92
2022-11-07T23:59:50.612Z,65.83
